createdAt,value
2022-08-28T00:03:03.168Z,53.28
2022-08-28T00:08:10.770Z,47.28
2022-08-28T00:13:19.220Z,46.72
2022-08-28T00:18:23.443Z,48.00
2022-08-28T00:23:36.949Z,51.00
2022-08-28T00:28:48.517Z,54.53
2022-08-28T00:33:52.004Z,56.08
2022-08-28T00:38:55.649Z,55.63
2022-08-28T00:44:11.135Z,49.40
2022-08-28T00:49:16.892Z,43.97
2022-08-28T00:54:21.309Z,44.35
2022-08-28T00:59:27.832Z,48.38
2022-08-28T01:04:33.606Z,45.17
2022-08-28T01:09:44.274Z,41.83
2022-08-28T01:14:53.713Z,41.75
2022-08-28T01:20:01.053Z,45.30
2022-08-28T01:25:12.717Z,53.72
2022-08-28T01:30:20.258Z,49.22
2022-08-28T01:35:27.221Z,48.45
2022-08-28T01:40:37.489Z,45.95
2022-08-28T01:45:42.724Z,45.22
2022-08-28T01:50:46.667Z,49.10
2022-08-28T01:55:52.656Z,45.90
2022-08-28T02:00:56.146Z,44.05
2022-08-28T02:05:59.634Z,44.47
2022-08-28T02:11:05.251Z,42.03
2022-08-28T02:16:11.093Z,48.63
2022-08-28T02:21:15.374Z,43.83
2022-08-28T02:26:21.224Z,44.20
2022-08-28T02:31:24.725Z,46.80
2022-08-28T02:36:28.542Z,44.67
2022-08-28T02:41:33.467Z,45.90
2022-08-28T02:46:36.966Z,43.15
2022-08-28T02:51:40.823Z,51.27
2022-08-28T02:56:46.039Z,47.78
2022-08-28T03:01:50.057Z,50.15
2022-08-28T03:06:53.516Z,47.10
2022-08-28T03:11:58.530Z,49.87
2022-08-28T03:17:02.262Z,51.28
2022-08-28T03:22:05.924Z,52.38
2022-08-28T03:27:10.836Z,51.58
2022-08-28T03:32:14.277Z,52.92
2022-08-28T03:37:17.781Z,50.37
2022-08-28T03:42:23.208Z,47.78
2022-08-28T03:47:28.409Z,56.08
2022-08-28T03:52:33.281Z,54.22
2022-08-28T03:57:38.138Z,50.10
2022-08-28T04:02:42.292Z,53.70
2022-08-28T04:12:50.894Z,54.92
2022-08-28T04:17:54.450Z,60.50
2022-08-28T04:22:58.036Z,59.80
2022-08-28T04:28:05.861Z,59.90
2022-08-28T04:33:10.747Z,61.70
2022-08-28T04:38:14.284Z,53.90
2022-08-28T04:43:19.238Z,60.58
2022-08-28T04:48:22.721Z,56.75
2022-08-28T04:53:26.263Z,55.33
2022-08-28T04:58:34.307Z,55.67
2022-08-28T05:03:38.135Z,52.58
2022-08-28T05:08:41.666Z,51.10
2022-08-28T05:13:47.007Z,50.42
2022-08-28T05:18:50.998Z,52.08
2022-08-28T05:23:56.603Z,51.80
2022-08-28T05:29:02.707Z,48.90
2022-08-28T05:34:07.251Z,48.47
2022-08-28T05:39:12.416Z,50.63
2022-08-28T05:44:18.661Z,55.90
2022-08-28T05:49:22.368Z,53.22
2022-08-28T05:59:31.546Z,46.77
2022-08-28T06:04:36.472Z,50.10
2022-08-28T06:09:40.330Z,46.47
2022-08-28T06:14:45.191Z,50.08
2022-08-28T06:19:49.030Z,44.97
2022-08-28T06:24:52.647Z,45.22
2022-08-28T06:29:58.838Z,46.58
2022-08-28T06:35:02.570Z,48.60
2022-08-28T06:40:07.877Z,47.17
2022-08-28T06:45:13.990Z,44.60
2022-08-28T06:50:17.693Z,45.40
2022-08-28T06:55:21.158Z,40.33
2022-08-28T07:00:26.216Z,37.53
2022-08-28T07:05:30.622Z,38.05
2022-08-28T07:10:34.212Z,36.67
2022-08-28T07:15:41.861Z,37.53
2022-08-28T07:20:46.912Z,36.05
2022-08-28T07:25:50.642Z,35.05
2022-08-28T07:31:00.681Z,32.20
2022-08-28T07:36:04.541Z,30.75
2022-08-28T07:41:15.862Z,31.35
2022-08-28T07:46:21.051Z,29.38
2022-08-28T07:51:24.628Z,27.70
2022-08-28T07:56:30.075Z,29.38
2022-08-28T08:01:39.739Z,31.40
2022-08-28T08:06:45.044Z,29.80
2022-08-28T08:11:49.511Z,26.80
2022-08-28T08:16:54.872Z,29.02
2022-08-28T08:21:59.350Z,26.40
2022-08-28T08:27:03.866Z,24.73
2022-08-28T08:32:12.335Z,29.88
2022-08-28T08:37:16.700Z,25.20
2022-08-28T08:42:25.976Z,25.70
2022-08-28T08:47:37.849Z,23.80
2022-08-28T08:52:59.779Z,22.75
2022-08-28T08:58:07.765Z,23.20
2022-08-28T09:03:17.382Z,20.50
2022-08-28T09:08:32.228Z,30.15
2022-08-28T09:13:49.779Z,32.95
2022-08-28T09:18:57.040Z,28.52
2022-08-28T09:24:10.933Z,25.15
2022-08-28T09:29:20.801Z,17.90
2022-08-28T09:34:30.121Z,22.33
2022-08-28T09:39:35.802Z,20.88
2022-08-28T09:44:56.461Z,21.85
2022-08-28T09:50:21.581Z,22.52
2022-08-28T09:55:35.299Z,16.27
2022-08-28T10:00:42.822Z,17.20
2022-08-28T10:05:58.829Z,20.10
2022-08-28T10:11:12.675Z,25.88
2022-08-28T10:16:24.822Z,17.58
2022-08-28T10:21:37.457Z,19.17
2022-08-28T10:26:50.093Z,20.35
2022-08-28T10:37:17.473Z,16.02
2022-08-28T10:42:35.717Z,13.93
2022-08-28T10:47:44.283Z,15.65
2022-08-28T10:52:55.524Z,14.95
2022-08-28T10:58:05.654Z,17.15
2022-08-28T11:03:36.927Z,17.60
2022-08-28T11:08:42.104Z,14.00
2022-08-28T11:13:56.164Z,13.05
2022-08-28T11:19:31.902Z,17.55
2022-08-28T11:24:47.414Z,16.15
2022-08-28T11:30:31.904Z,14.82
2022-08-28T11:35:48.690Z,11.82
2022-08-28T11:40:58.235Z,13.68
2022-08-28T11:46:26.263Z,17.40
2022-08-28T11:51:56.042Z,14.85
2022-08-28T11:57:09.504Z,19.73
2022-08-28T12:02:51.156Z,13.82
2022-08-28T12:07:54.668Z,19.63
2022-08-28T12:13:02.346Z,15.50
2022-08-28T12:18:14.808Z,18.33
2022-08-28T12:23:41.493Z,20.60
2022-08-28T12:28:49.958Z,22.75
2022-08-28T12:34:00.625Z,20.58
2022-08-28T12:39:07.803Z,21.98
2022-08-28T12:44:15.719Z,21.27
2022-08-28T12:49:35.161Z,19.80
2022-08-28T12:54:39.089Z,21.73
2022-08-28T12:59:45.978Z,24.42
2022-08-28T13:04:55.659Z,17.35
2022-08-28T13:10:03.567Z,19.63
2022-08-28T13:15:11.422Z,18.23
2022-08-28T13:20:28.978Z,18.80
2022-08-28T13:25:35.003Z,23.05
2022-08-28T13:30:40.462Z,19.70
2022-08-28T13:35:44.425Z,18.75
2022-08-28T13:40:58.001Z,21.92
2022-08-28T13:46:04.808Z,23.50
2022-08-28T13:51:14.216Z,22.58
2022-08-28T13:56:24.324Z,22.58
2022-08-28T14:01:49.391Z,18.52
2022-08-28T14:06:54.107Z,20.67
2022-08-28T14:11:58.008Z,20.30
2022-08-28T14:17:03.916Z,21.17
2022-08-28T14:22:07.911Z,27.52
2022-08-28T14:27:11.818Z,39.80
2022-08-28T14:32:16.802Z,39.63
2022-08-28T14:37:21.742Z,45.75
2022-08-28T14:42:26.722Z,42.63
2022-08-28T14:47:33.003Z,52.50
2022-08-28T14:52:37.556Z,40.45
2022-08-28T14:57:42.113Z,28.65
2022-08-28T15:02:47.254Z,23.50
2022-08-28T15:07:51.255Z,21.65
2022-08-28T15:12:54.991Z,28.27
2022-08-28T15:18:00.898Z,29.30
2022-08-28T15:23:04.695Z,30.10
2022-08-28T15:28:08.836Z,29.13
2022-08-28T15:33:14.347Z,22.98
2022-08-28T15:38:18.379Z,28.33
2022-08-28T15:43:22.006Z,29.95
2022-08-28T15:48:30.532Z,24.88
2022-08-28T15:53:35.018Z,24.52
2022-08-28T15:58:39.131Z,26.58
2022-08-28T16:03:44.176Z,28.50
2022-08-28T16:08:49.379Z,29.25
2022-08-28T16:13:54.133Z,25.75
2022-08-28T16:18:59.607Z,22.65
2022-08-28T16:24:03.225Z,21.73
2022-08-28T16:29:07.704Z,22.20
2022-08-28T16:34:12.595Z,28.67
2022-08-28T16:39:16.687Z,23.90
2022-08-28T16:44:20.874Z,23.48
2022-08-28T16:49:26.763Z,27.63
2022-08-28T16:54:30.559Z,23.88
2022-08-28T16:59:34.802Z,29.25
2022-08-28T17:04:45.310Z,25.15
2022-08-28T17:09:49.474Z,24.13
2022-08-28T17:14:52.970Z,27.15
2022-08-28T17:19:57.948Z,28.60
2022-08-28T17:25:03.578Z,25.70
2022-08-28T17:30:09.239Z,25.85
2022-08-28T17:35:15.307Z,28.83
2022-08-28T17:40:19.874Z,28.30
2022-08-28T17:45:25.824Z,26.00
2022-08-28T17:50:32.700Z,29.55
2022-08-28T17:55:37.408Z,24.52
2022-08-28T18:00:41.935Z,29.88
2022-08-28T18:05:47.918Z,31.63
2022-08-28T18:10:51.795Z,27.10
2022-08-28T18:21:02.785Z,39.20
2022-08-28T18:26:07.732Z,47.30
2022-08-28T18:31:11.640Z,48.65
2022-08-28T18:36:17.258Z,49.13
2022-08-28T18:41:34.555Z,53.13
2022-08-28T18:46:45.920Z,56.70
2022-08-28T18:56:59.600Z,54.08
2022-08-28T19:02:08.906Z,62.27
2022-08-28T19:07:14.739Z,66.22
2022-08-28T19:12:18.373Z,66.82
2022-08-28T19:17:22.157Z,73.40
2022-08-28T19:22:29.981Z,67.18
2022-08-28T19:27:34.285Z,74.13
2022-08-28T19:32:39.853Z,81.65
2022-08-28T19:37:47.321Z,86.47
2022-08-28T19:42:51.432Z,90.43
2022-08-28T19:47:56.326Z,86.45
2022-08-28T19:53:01.498Z,88.93
2022-08-28T19:58:06.989Z,87.93
2022-08-28T20:03:11.257Z,91.38
2022-08-28T20:08:17.878Z,85.43
2022-08-28T20:13:22.090Z,89.55
2022-08-28T20:18:26.311Z,82.18
2022-08-28T20:23:31.107Z,87.63
2022-08-28T20:28:35.605Z,67.65
2022-08-28T20:33:39.759Z,77.85
2022-08-28T20:38:45.269Z,83.57
2022-08-28T20:43:49.838Z,78.88
2022-08-28T20:48:53.524Z,83.18
2022-08-28T20:53:58.315Z,82.95
2022-08-28T20:59:02.641Z,81.40
2022-08-28T21:04:07.959Z,82.30
2022-08-28T21:09:12.839Z,73.88
2022-08-28T21:14:16.922Z,73.47
2022-08-28T21:19:20.382Z,73.75
2022-08-28T21:24:26.450Z,72.93
2022-08-28T21:29:30.914Z,74.50
2022-08-28T21:34:34.375Z,75.30
2022-08-28T21:39:39.834Z,74.07
2022-08-28T21:44:46.108Z,70.78
2022-08-28T21:49:56.985Z,75.32
2022-08-28T21:55:04.926Z,79.07
2022-08-28T22:00:14.100Z,73.22
2022-08-28T22:05:18.173Z,74.88
2022-08-28T22:15:26.976Z,69.82
2022-08-28T22:20:30.804Z,66.60
2022-08-28T22:25:40.602Z,72.47
2022-08-28T22:30:44.918Z,72.38
2022-08-28T22:35:50.508Z,67.68
2022-08-28T22:40:55.357Z,64.75
2022-08-28T22:45:59.491Z,62.95
2022-08-28T22:51:06.554Z,63.42
2022-08-28T22:56:12.691Z,58.35
2022-08-28T23:01:19.343Z,62.95
2022-08-28T23:06:22.811Z,70.57
2022-08-28T23:11:28.565Z,64.40
2022-08-28T23:16:35.221Z,64.10
2022-08-28T23:21:40.829Z,65.03
2022-08-28T23:26:49.261Z,65.40
2022-08-28T23:31:54.595Z,62.13
2022-08-28T23:36:58.031Z,61.80
2022-08-28T23:42:03.774Z,61.00
2022-08-28T23:47:07.394Z,59.83
2022-08-28T23:52:11.021Z,61.25
2022-08-28T23:57:17.347Z,61.30
